createdAt,value
2023-05-12T00:02:37.744Z,3.60
2023-05-12T00:06:50.204Z,3.55
2023-05-12T00:11:03.168Z,3.38
2023-05-12T00:15:15.783Z,3.40
2023-05-12T00:19:28.317Z,3.28
2023-05-12T00:23:40.872Z,3.60
2023-05-12T00:27:53.405Z,3.60
2023-05-12T00:32:07.289Z,3.28
2023-05-12T00:36:20.164Z,3.55
2023-05-12T00:40:32.732Z,3.58
2023-05-12T00:44:45.869Z,3.28
2023-05-12T00:48:59.312Z,3.22
2023-05-12T00:53:13.375Z,3.60
2023-05-12T00:57:28.291Z,3.08
2023-05-12T01:01:41.377Z,3.22
2023-05-12T01:06:15.846Z,2.97
2023-05-12T01:10:28.312Z,3.25
2023-05-12T01:14:41.808Z,3.60
2023-05-12T01:18:56.497Z,3.80
2023-05-12T01:23:09.893Z,3.63
2023-05-12T01:27:26.106Z,3.53
2023-05-12T01:31:39.612Z,3.55
2023-05-12T01:35:52.079Z,2.90
2023-05-12T01:40:05.322Z,3.17
2023-05-12T01:44:18.062Z,3.08
2023-05-12T01:48:30.820Z,3.00
2023-05-12T01:52:45.986Z,3.00
2023-05-12T01:57:01.129Z,2.67
2023-05-12T02:01:13.744Z,2.70
2023-05-12T02:05:26.688Z,2.63
2023-05-12T02:09:39.504Z,2.72
2023-05-12T02:13:52.554Z,2.97
2023-05-12T02:18:05.250Z,2.72
2023-05-12T02:22:17.882Z,3.08
2023-05-12T02:26:30.347Z,2.90
2023-05-12T02:30:51.105Z,2.80
2023-05-12T02:35:03.510Z,2.90
2023-05-12T02:39:16.141Z,2.90
2023-05-12T02:43:28.525Z,2.70
2023-05-12T02:47:41.059Z,2.60
2023-05-12T02:51:55.230Z,2.90
2023-05-12T02:56:08.433Z,2.88
2023-05-12T03:00:21.029Z,2.80
2023-05-12T03:04:34.127Z,2.80
2023-05-12T03:08:47.278Z,2.83
2023-05-12T03:12:59.780Z,3.10
2023-05-12T03:17:12.365Z,3.20
2023-05-12T03:21:24.871Z,2.67
2023-05-12T03:25:37.229Z,2.97
2023-05-12T03:29:49.716Z,2.67
2023-05-12T03:34:02.392Z,2.83
2023-05-12T03:38:14.832Z,2.50
2023-05-12T03:42:27.233Z,2.60
2023-05-12T03:46:39.675Z,2.85
2023-05-12T03:50:52.163Z,2.80
2023-05-12T03:55:07.252Z,2.50
2023-05-12T03:59:19.777Z,2.72
2023-05-12T04:03:32.375Z,2.42
2023-05-12T04:07:44.772Z,2.70
2023-05-12T04:11:57.256Z,2.42
2023-05-12T04:16:10.166Z,2.45
2023-05-12T04:20:23.317Z,2.90
2023-05-12T04:24:37.915Z,2.72
2023-05-12T04:28:50.604Z,2.67
2023-05-12T04:33:03.486Z,2.88
2023-05-12T04:37:16.538Z,2.83
2023-05-12T04:41:30.154Z,3.05
2023-05-12T04:45:44.405Z,2.75
2023-05-12T04:50:00.157Z,2.58
2023-05-12T04:54:12.800Z,2.40
2023-05-12T04:58:25.749Z,3.00
2023-05-12T05:02:38.688Z,2.80
2023-05-12T05:06:51.346Z,3.10
2023-05-12T05:11:04.691Z,2.72
2023-05-12T05:15:17.896Z,3.60
2023-05-12T05:23:48.285Z,3.03
2023-05-12T05:28:01.499Z,3.38
2023-05-12T05:32:14.240Z,3.63
2023-05-12T05:36:27.345Z,7.07
2023-05-12T05:40:52.109Z,4.43
2023-05-12T05:45:06.786Z,4.07
2023-05-12T05:49:20.383Z,4.72
2023-05-12T05:53:33.592Z,4.00
2023-05-12T05:57:46.780Z,3.50
2023-05-12T06:01:59.258Z,4.45
2023-05-12T06:06:11.703Z,4.18
2023-05-12T06:10:24.878Z,4.18
2023-05-12T06:14:37.281Z,3.95
2023-05-12T06:18:49.728Z,5.07
2023-05-12T06:23:02.405Z,5.13
2023-05-12T06:27:14.865Z,4.50
2023-05-12T06:31:27.294Z,4.90
2023-05-12T06:35:40.125Z,5.25
2023-05-12T06:39:52.589Z,5.40
2023-05-12T06:44:06.584Z,5.22
2023-05-12T06:48:18.873Z,6.07
2023-05-12T06:52:31.783Z,4.80
2023-05-12T06:56:44.510Z,4.80
2023-05-12T07:00:57.815Z,4.85
2023-05-12T07:05:10.455Z,3.28
2023-05-12T07:09:23.255Z,4.05
2023-05-12T07:13:35.817Z,3.10
2023-05-12T07:17:48.452Z,3.08
2023-05-12T07:22:00.900Z,3.78
2023-05-12T07:26:13.469Z,3.63
2023-05-12T07:30:26.019Z,3.60
2023-05-12T07:34:39.133Z,4.20
2023-05-12T07:38:51.678Z,3.63
2023-05-12T07:43:04.095Z,4.07
2023-05-12T07:47:16.482Z,3.08
2023-05-12T07:51:29.396Z,3.75
2023-05-12T07:55:43.497Z,2.80
2023-05-12T07:59:56.281Z,4.03
2023-05-12T08:04:11.283Z,3.53
2023-05-12T08:08:23.682Z,3.60
2023-05-12T08:12:36.214Z,3.47
2023-05-12T08:16:48.797Z,3.20
2023-05-12T08:21:01.313Z,3.47
2023-05-12T08:25:13.850Z,3.15
2023-05-12T08:29:26.194Z,4.20
2023-05-12T08:33:38.708Z,3.15
2023-05-12T08:37:51.215Z,3.25
2023-05-12T08:42:27.858Z,3.20
2023-05-12T08:46:41.090Z,3.53
2023-05-12T08:50:55.034Z,3.17
2023-05-12T08:55:09.724Z,3.40
2023-05-12T08:59:23.952Z,3.05
2023-05-12T09:03:36.573Z,2.72
2023-05-12T09:07:50.729Z,3.25
2023-05-12T09:12:04.343Z,2.67
2023-05-12T09:16:23.570Z,3.05
2023-05-12T09:24:48.701Z,2.55
2023-05-12T09:29:08.708Z,2.17
2023-05-12T09:33:23.287Z,2.58
2023-05-12T09:37:35.845Z,3.13
2023-05-12T09:41:48.520Z,2.90
2023-05-12T09:46:06.408Z,2.97
2023-05-12T09:50:19.660Z,2.90
2023-05-12T09:54:33.906Z,2.70
2023-05-12T09:58:48.545Z,2.20
2023-05-12T10:03:01.832Z,2.70
2023-05-12T10:07:17.097Z,2.80
2023-05-12T10:11:30.206Z,2.78
2023-05-12T10:15:44.397Z,2.97
2023-05-12T10:19:57.671Z,2.63
2023-05-12T10:24:10.082Z,2.92
2023-05-12T10:28:22.849Z,2.53
2023-05-12T10:32:35.502Z,3.10
2023-05-12T10:36:50.537Z,2.95
2023-05-12T10:41:06.708Z,2.60
2023-05-12T10:45:20.708Z,3.03
2023-05-12T10:49:36.821Z,3.05
2023-05-12T10:53:54.891Z,3.00
2023-05-12T10:58:11.614Z,2.88
2023-05-12T11:02:32.063Z,3.00
2023-05-12T11:06:46.764Z,3.33
2023-05-12T11:10:59.742Z,3.65
2023-05-12T11:15:12.770Z,3.88
2023-05-12T11:19:25.154Z,4.97
2023-05-12T11:23:37.975Z,5.25
2023-05-12T11:27:50.894Z,6.07
2023-05-12T11:32:03.455Z,4.80
2023-05-12T11:36:21.773Z,6.15
2023-05-12T11:40:41.371Z,5.68
2023-05-12T11:49:12.973Z,5.65
2023-05-12T11:53:26.085Z,5.15
2023-05-12T11:57:40.050Z,5.63
2023-05-12T12:01:52.562Z,4.40
2023-05-12T12:06:11.029Z,4.47
2023-05-12T12:10:23.510Z,5.38
2023-05-12T12:14:38.297Z,4.82
2023-05-12T12:18:50.921Z,5.07
2023-05-12T12:23:03.410Z,5.10
2023-05-12T12:27:16.110Z,4.93
2023-05-12T12:31:28.721Z,4.07
2023-05-12T12:35:41.727Z,4.80
2023-05-12T12:39:54.649Z,5.22
2023-05-12T12:44:07.420Z,4.97
2023-05-12T12:48:21.399Z,5.03
2023-05-12T12:52:34.098Z,5.15
2023-05-12T12:56:46.614Z,4.80
2023-05-12T13:00:59.443Z,7.05
2023-05-12T13:05:12.060Z,7.05
2023-05-12T13:09:24.740Z,7.25
2023-05-12T13:13:38.471Z,6.82
2023-05-12T13:17:51.030Z,7.00
2023-05-12T13:22:03.591Z,7.65
2023-05-12T13:26:16.121Z,7.28
2023-05-12T13:30:28.531Z,6.47
2023-05-12T13:34:41.115Z,5.40
2023-05-12T13:38:53.471Z,5.82
2023-05-12T13:43:05.905Z,5.80
2023-05-12T13:47:19.300Z,5.18
2023-05-12T13:51:32.720Z,5.10
2023-05-12T13:55:45.286Z,5.35
2023-05-12T13:59:58.849Z,5.95
2023-05-12T14:04:12.185Z,4.65
2023-05-12T14:08:24.528Z,3.80
2023-05-12T14:12:41.534Z,4.00
2023-05-12T14:16:54.411Z,3.90
2023-05-12T14:21:07.068Z,4.20
2023-05-12T14:25:19.776Z,4.50
2023-05-12T14:29:32.332Z,4.95
2023-05-12T14:33:44.785Z,4.57
2023-05-12T14:37:57.392Z,3.97
2023-05-12T14:42:09.823Z,4.80
2023-05-12T14:46:22.481Z,3.92
2023-05-12T14:50:35.050Z,4.18
2023-05-12T14:54:47.472Z,4.13
2023-05-12T14:59:00.390Z,4.40
2023-05-12T15:03:13.844Z,3.90
2023-05-12T15:07:26.396Z,4.80
2023-05-12T15:11:38.875Z,3.92
2023-05-12T15:15:55.076Z,3.70
2023-05-12T15:20:10.303Z,4.07
2023-05-12T15:24:22.675Z,3.20
2023-05-12T15:28:35.170Z,3.55
2023-05-12T15:32:47.752Z,3.42
2023-05-12T15:37:00.290Z,5.22
2023-05-12T15:41:13.005Z,4.55
2023-05-12T15:45:25.655Z,3.55
2023-05-12T15:49:37.963Z,3.92
2023-05-12T15:53:53.692Z,4.07
2023-05-12T15:58:08.485Z,4.55
2023-05-12T16:02:20.918Z,3.90
2023-05-12T16:06:33.454Z,4.15
2023-05-12T16:10:45.971Z,4.75
2023-05-12T16:14:58.394Z,5.18
2023-05-12T16:19:11.017Z,5.28
2023-05-12T16:23:23.514Z,5.60
2023-05-12T16:27:36.886Z,5.07
2023-05-12T16:31:49.557Z,4.38
2023-05-12T16:36:02.194Z,4.45
2023-05-12T16:40:15.579Z,6.03
2023-05-12T16:44:28.209Z,4.82
2023-05-12T16:48:40.540Z,4.45
2023-05-12T16:52:54.151Z,5.20
2023-05-12T16:57:06.827Z,5.03
2023-05-12T17:01:19.611Z,4.70
2023-05-12T17:05:32.128Z,4.63
2023-05-12T17:09:44.436Z,5.43
2023-05-12T17:13:56.859Z,4.70
2023-05-12T17:18:09.593Z,4.88
2023-05-12T17:22:22.360Z,4.55
2023-05-12T17:26:35.328Z,4.88
2023-05-12T17:30:48.321Z,5.45
2023-05-12T17:35:00.884Z,5.10
2023-05-12T17:39:16.252Z,5.70
2023-05-12T17:43:30.052Z,5.82
2023-05-12T17:47:43.622Z,5.88
2023-05-12T17:51:56.459Z,5.78
2023-05-12T17:56:09.010Z,5.55
2023-05-12T18:00:22.042Z,4.45
2023-05-12T18:04:35.121Z,4.93
2023-05-12T18:08:47.581Z,5.45
2023-05-12T18:13:00.040Z,5.90
2023-05-12T18:17:12.430Z,5.78
2023-05-12T18:21:25.439Z,5.03
2023-05-12T18:25:38.009Z,5.43
2023-05-12T18:29:50.491Z,5.40
2023-05-12T18:34:02.968Z,6.05
2023-05-12T18:38:15.379Z,5.70
2023-05-12T18:42:29.247Z,5.10
2023-05-12T18:46:41.725Z,5.10
2023-05-12T18:50:57.264Z,6.68
2023-05-12T18:55:09.962Z,5.75
2023-05-12T18:59:22.391Z,6.57
2023-05-12T19:03:34.826Z,7.97
2023-05-12T19:07:47.088Z,6.80
2023-05-12T19:11:59.898Z,7.13
2023-05-12T19:16:12.509Z,6.30
2023-05-12T19:20:24.996Z,5.57
2023-05-12T19:24:38.244Z,6.90
2023-05-12T19:28:50.752Z,10.00
2023-05-12T19:33:03.266Z,5.97
2023-05-12T19:37:15.755Z,7.88
2023-05-12T19:41:30.268Z,6.15
2023-05-12T19:45:42.905Z,6.97
2023-05-12T19:49:55.598Z,7.97
2023-05-12T19:54:10.326Z,6.32
2023-05-12T19:58:22.914Z,5.88
2023-05-12T20:02:35.514Z,5.32
2023-05-12T20:06:47.928Z,6.18
2023-05-12T20:11:00.333Z,6.75
2023-05-12T20:15:12.805Z,6.25
2023-05-12T20:19:25.216Z,7.50
2023-05-12T20:23:38.251Z,6.97
2023-05-12T20:27:50.725Z,6.30
2023-05-12T20:32:03.243Z,7.40
2023-05-12T20:36:15.713Z,6.75
2023-05-12T20:40:28.106Z,8.50
2023-05-12T20:44:40.989Z,8.57
2023-05-12T20:48:53.353Z,7.38
2023-05-12T20:53:05.930Z,6.78
2023-05-12T20:57:18.425Z,7.35
2023-05-12T21:01:31.237Z,7.88
2023-05-12T21:05:47.962Z,6.28
2023-05-12T21:10:00.894Z,7.43
2023-05-12T21:14:13.416Z,7.30
2023-05-12T21:18:26.147Z,7.50
2023-05-12T21:22:40.928Z,7.03
2023-05-12T21:26:53.344Z,7.75
2023-05-12T21:31:05.915Z,6.85
2023-05-12T21:35:19.058Z,5.65
2023-05-12T21:39:31.529Z,4.88
2023-05-12T21:43:43.931Z,5.32
2023-05-12T21:47:56.469Z,5.40
2023-05-12T21:52:09.659Z,5.55
2023-05-12T21:56:23.340Z,6.00
2023-05-12T22:00:35.760Z,6.47
2023-05-12T22:04:48.234Z,5.70
2023-05-12T22:09:00.905Z,6.35
2023-05-12T22:13:13.341Z,5.18
2023-05-12T22:17:25.811Z,5.10
2023-05-12T22:21:41.332Z,5.60
2023-05-12T22:25:53.875Z,4.80
2023-05-12T22:30:06.998Z,5.13
2023-05-12T22:34:19.544Z,5.30
2023-05-12T22:38:31.995Z,4.45
2023-05-12T22:42:44.448Z,4.47
2023-05-12T22:46:56.832Z,5.40
2023-05-12T22:51:09.796Z,5.15
2023-05-12T22:55:22.463Z,4.38
2023-05-12T22:59:34.855Z,4.03
2023-05-12T23:03:47.379Z,4.05
2023-05-12T23:07:59.881Z,4.47
2023-05-12T23:12:12.511Z,4.70
2023-05-12T23:16:25.942Z,4.93
2023-05-12T23:20:38.446Z,4.43
2023-05-12T23:24:52.443Z,4.03
2023-05-12T23:29:04.872Z,4.40
2023-05-12T23:33:17.660Z,4.38
2023-05-12T23:37:30.093Z,4.15
2023-05-12T23:41:42.519Z,4.32
2023-05-12T23:45:55.033Z,3.92
2023-05-12T23:50:08.130Z,3.92
2023-05-12T23:54:20.618Z,4.72
2023-05-12T23:58:33.014Z,4.60
